Dunlap, Tennessee
Current Conditions -  °F | °C
As of 4:53 PM on Sunday 21 Dec 2014 (Local Time) from KCHA Reporting Station
Overcast Overcast  
Wind Chill: 47°   Ceiling: 3900
Heat Index: 47°   Visibility: 10mi
Dew Point: 38°   Wind: 3mph
Humidity: 71%   Direction: 340°NNW
Pressure: 30.11"   Gusts: NA
Location:  35.37°N, 85.39°W
Report Text: KCHA 212253Z 34003KT 10SM BKN039 OVC045 08/03 A3011 RMK AO2 SLP197 T00830033 $
Loading
Personal Weather Stations






























Interactive Weather Map New forecast layout! Learn more

10-Day Weather Forecast

Advertisements
Track Severe Weather on mobile